Time;durP1;ratioP1;P1;durP2;ratioP2;P2;SDS_P1;SDS_P2;PMS_P1;PMS_P2;Temp;Humidity;BMP_temperature;BMP_pressure;BME280_temperature;BME280_humidity;BME280_pressure;Samples;Min_cycle;Max_cycle;Signal;HPM_P1;HPM_P2
2024/02/16 00:01:14;;;;;;;75.60;46.63;;;;;;;;;;6264748;28;24432;-83
2024/02/16 00:04:17;;;;;;;151.53;80.80;;;;;;;;;;6264309;28;24533;-83
2024/02/16 00:07:18;;;;;;;114.72;63.97;;;;;;;;;;6266885;28;24828;-81
2024/02/16 00:10:21;;;;;;;94.10;53.80;;;;;;;;;;6265453;28;24442;-82
2024/02/16 00:13:23;;;;;;;79.22;47.17;;;;;;;;;;6268502;28;24516;-83
2024/02/16 00:16:24;;;;;;;100.57;55.95;;;;;;;;;;6266182;28;24480;-82
2024/02/16 00:19:27;;;;;;;93.50;51.87;;;;;;;;;;6265679;28;24431;-80
2024/02/16 00:22:29;;;;;;;99.15;54.33;;;;;;;;;;6265229;28;24971;-81
2024/02/16 00:25:31;;;;;;;74.10;42.50;;;;;;;;;;6267341;28;24415;-82
2024/02/16 00:28:32;;;;;;;53.90;35.13;;;;;;;;;;6261385;28;24643;-82
2024/02/16 00:31:34;;;;;;;48.80;32.83;;;;;;;;;;6265479;28;24738;-82
2024/02/16 00:34:37;;;;;;;51.97;32.55;;;;;;;;;;6262450;28;24415;-81
2024/02/16 00:37:39;;;;;;;51.00;32.65;;;;;;;;;;6263616;28;24415;-81
2024/02/16 00:40:43;;;;;;;48.90;32.00;;;;;;;;;;6265388;28;24430;-81
2024/02/16 00:43:45;;;;;;;49.90;33.42;;;;;;;;;;6264443;28;24419;-82
2024/02/16 00:46:47;;;;;;;51.35;33.55;;;;;;;;;;6264513;28;24661;-81
2024/02/16 00:49:50;;;;;;;51.88;34.22;;;;;;;;;;6262423;28;24422;-82
2024/02/16 00:52:51;;;;;;;49.73;33.13;;;;;;;;;;6262069;28;24505;-82
2024/02/16 00:55:52;;;;;;;48.25;32.45;;;;;;;;;;6264474;28;24435;-82
2024/02/16 00:58:54;;;;;;;49.55;32.55;;;;;;;;;;6262316;28;24616;-81
2024/02/16 01:01:55;;;;;;;45.47;30.95;;;;;;;;;;6266042;28;24497;-81
2024/02/16 01:05:01;;;;;;;46.33;31.52;;;;;;;;;;6263413;28;24408;-81
2024/02/16 01:08:03;;;;;;;48.13;31.58;;;;;;;;;;6262867;28;24798;-82
2024/02/16 01:11:04;;;;;;;49.47;32.70;;;;;;;;;;6261716;28;24453;-82
2024/02/16 01:14:07;;;;;;;51.00;32.55;;;;;;;;;;6264080;28;24428;-81
2024/02/16 01:17:09;;;;;;;51.42;33.92;;;;;;;;;;6264206;28;24412;-82
2024/02/16 01:20:12;;;;;;;49.10;33.20;;;;;;;;;;6264948;28;24415;-81
2024/02/16 01:23:13;;;;;;;50.97;33.25;;;;;;;;;;6265345;28;24481;-82
2024/02/16 01:26:15;;;;;;;47.95;31.98;;;;;;;;;;6266119;28;24438;-81
2024/02/16 01:29:16;;;;;;;47.77;31.90;;;;;;;;;;6263356;28;24499;-81
2024/02/16 01:32:18;;;;;;;48.40;32.13;;;;;;;;;;6262451;28;24419;-82
2024/02/16 01:35:21;;;;;;;49.17;32.10;;;;;;;;;;6264561;28;24432;-82
2024/02/16 01:38:24;;;;;;;48.65;32.08;;;;;;;;;;6268731;28;24419;-83
2024/02/16 01:41:25;;;;;;;50.35;32.28;;;;;;;;;;6268549;28;24752;-81
2024/02/16 01:44:26;;;;;;;50.87;31.27;;;;;;;;;;6268789;28;24423;-81
2024/02/16 01:47:28;;;;;;;47.35;32.08;;;;;;;;;;6269048;28;24432;-82
2024/02/16 01:50:33;;;;;;;47.92;32.70;;;;;;;;;;6269768;28;24437;-81
2024/02/16 01:53:36;;;;;;;52.40;33.57;;;;;;;;;;6269196;28;24501;-81
2024/02/16 01:56:37;;;;;;;54.88;34.53;;;;;;;;;;6269539;28;24434;-81
2024/02/16 01:59:40;;;;;;;48.13;32.80;;;;;;;;;;6268387;28;24434;-82
2024/02/16 02:02:41;;;;;;;49.57;32.47;;;;;;;;;;6269574;28;24444;-82
2024/02/16 02:05:47;;;;;;;46.22;31.60;;;;;;;;;;6266806;28;24423;-80
2024/02/16 02:08:49;;;;;;;52.17;33.67;;;;;;;;;;6267990;28;24826;-81
2024/02/16 02:11:51;;;;;;;48.53;32.80;;;;;;;;;;6265980;28;24435;-81
2024/02/16 02:14:53;;;;;;;51.80;31.83;;;;;;;;;;6268669;28;24462;-82
2024/02/16 02:17:54;;;;;;;48.75;33.00;;;;;;;;;;6268033;28;24426;-81
2024/02/16 02:20:57;;;;;;;49.38;32.03;;;;;;;;;;6269122;28;24485;-81
2024/02/16 02:24:00;;;;;;;48.22;31.65;;;;;;;;;;6267055;28;24431;-83
2024/02/16 02:27:02;;;;;;;49.58;32.08;;;;;;;;;;6264930;28;24443;-82
2024/02/16 02:30:05;;;;;;;48.83;32.67;;;;;;;;;;6266893;28;24500;-80
2024/02/16 02:33:07;;;;;;;48.63;31.57;;;;;;;;;;6267222;28;24823;-81
2024/02/16 02:36:08;;;;;;;48.22;32.50;;;;;;;;;;6266827;28;24654;-80
2024/02/16 02:39:11;;;;;;;49.43;32.20;;;;;;;;;;6269368;28;25087;-81
2024/02/16 02:42:13;;;;;;;48.60;31.98;;;;;;;;;;6266382;28;24478;-82
2024/02/16 02:45:14;;;;;;;53.38;32.92;;;;;;;;;;6269548;28;24760;-81
2024/02/16 02:48:16;;;;;;;50.85;31.70;;;;;;;;;;6267884;28;24438;-82
2024/02/16 02:51:17;;;;;;;50.20;32.83;;;;;;;;;;6267988;28;24814;-82
2024/02/16 02:54:21;;;;;;;49.45;31.80;;;;;;;;;;6266565;28;24434;-82
2024/02/16 02:57:22;;;;;;;47.70;31.13;;;;;;;;;;6267103;28;24510;-81
2024/02/16 03:00:25;;;;;;;50.20;32.40;;;;;;;;;;6267365;28;24431;-81
2024/02/16 03:03:27;;;;;;;51.83;32.47;;;;;;;;;;6267494;28;24434;-82
2024/02/16 03:06:28;;;;;;;84.20;47.50;;;;;;;;;;6269041;28;24880;-81
2024/02/16 03:09:31;;;;;;;84.75;49.08;;;;;;;;;;6269646;28;24442;-84
2024/02/16 03:12:32;;;;;;;126.10;66.50;;;;;;;;;;6269562;28;24534;-82
2024/02/16 03:15:35;;;;;;;98.82;54.03;;;;;;;;;;6268229;28;24427;-83
2024/02/16 03:18:37;;;;;;;93.13;54.15;;;;;;;;;;6268216;28;24416;-84
2024/02/16 03:21:38;;;;;;;91.38;52.30;;;;;;;;;;6266645;28;24424;-81
2024/02/16 03:24:41;;;;;;;69.25;42.97;;;;;;;;;;6270420;28;24431;-81
2024/02/16 03:27:43;;;;;;;56.07;37.47;;;;;;;;;;6263901;28;24423;-82
2024/02/16 03:30:45;;;;;;;55.97;34.95;;;;;;;;;;6266880;28;24953;-81
2024/02/16 03:33:46;;;;;;;51.40;33.67;;;;;;;;;;6266152;28;24419;-80
2024/02/16 03:36:48;;;;;;;49.70;33.60;;;;;;;;;;6265001;28;24454;-81
2024/02/16 03:39:50;;;;;;;51.72;34.13;;;;;;;;;;6264946;28;24427;-81
2024/02/16 03:42:52;;;;;;;47.95;33.70;;;;;;;;;;6265614;28;24434;-80
2024/02/16 03:45:53;;;;;;;54.70;34.17;;;;;;;;;;6264493;28;24427;-80
2024/02/16 03:48:55;;;;;;;52.15;34.40;;;;;;;;;;6264016;28;24434;-82
2024/02/16 03:51:56;;;;;;;49.40;32.70;;;;;;;;;;6264649;28;26738;-82
2024/02/16 03:54:59;;;;;;;50.58;33.72;;;;;;;;;;6267436;28;24420;-81
2024/02/16 03:58:00;;;;;;;49.72;34.33;;;;;;;;;;6265244;28;24426;-83
2024/02/16 04:01:02;;;;;;;50.17;33.67;;;;;;;;;;6266090;28;24853;-80
2024/02/16 04:04:03;;;;;;;50.47;34.30;;;;;;;;;;6266139;28;24446;-81
2024/02/16 04:07:06;;;;;;;52.08;33.20;;;;;;;;;;6265738;28;24419;-81
2024/02/16 04:10:10;;;;;;;49.08;33.65;;;;;;;;;;6264790;28;24780;-81
2024/02/16 04:13:11;;;;;;;52.38;35.53;;;;;;;;;;6265066;28;24458;-82
2024/02/16 04:16:13;;;;;;;54.10;35.60;;;;;;;;;;6268854;28;24615;-81
2024/02/16 04:19:14;;;;;;;52.75;34.38;;;;;;;;;;6263631;28;24508;-81
2024/02/16 04:22:15;;;;;;;49.28;33.20;;;;;;;;;;6266353;28;24441;-81
2024/02/16 04:25:18;;;;;;;49.47;33.88;;;;;;;;;;6265350;28;24430;-80
2024/02/16 04:28:20;;;;;;;53.00;35.47;;;;;;;;;;6266217;28;24599;-81
2024/02/16 04:31:21;;;;;;;50.53;34.40;;;;;;;;;;6265530;28;24415;-82
2024/02/16 04:34:23;;;;;;;48.45;33.80;;;;;;;;;;6263927;28;24799;-82
2024/02/16 04:37:25;;;;;;;49.63;33.33;;;;;;;;;;6265831;28;24439;-82
2024/02/16 04:40:28;;;;;;;48.40;33.75;;;;;;;;;;6264858;28;24449;-80
2024/02/16 04:43:29;;;;;;;48.87;33.10;;;;;;;;;;6266094;28;24496;-80
2024/02/16 04:46:30;;;;;;;46.53;33.20;;;;;;;;;;6264776;28;24481;-81
2024/02/16 04:49:32;;;;;;;47.67;33.17;;;;;;;;;;6263491;28;24564;-80
2024/02/16 04:52:34;;;;;;;50.72;33.83;;;;;;;;;;6264699;28;24423;-80
2024/02/16 04:55:36;;;;;;;50.42;34.60;;;;;;;;;;6265196;28;24431;-81
2024/02/16 04:58:41;;;;;;;49.22;33.60;;;;;;;;;;6265818;28;24416;-81
2024/02/16 05:01:43;;;;;;;48.13;32.90;;;;;;;;;;6262776;28;24790;-81
2024/02/16 05:04:45;;;;;;;45.45;31.88;;;;;;;;;;6265216;28;24771;-81
2024/02/16 05:07:48;;;;;;;47.63;33.83;;;;;;;;;;6266290;28;24651;-81
2024/02/16 05:10:50;;;;;;;45.88;31.35;;;;;;;;;;6264561;28;24426;-81
2024/02/16 05:13:52;;;;;;;48.80;31.97;;;;;;;;;;6268879;28;24424;-81
2024/02/16 05:16:53;;;;;;;48.78;32.20;;;;;;;;;;6271513;28;24422;-81
2024/02/16 05:19:55;;;;;;;50.33;33.47;;;;;;;;;;6273106;28;24419;-81
2024/02/16 05:22:56;;;;;;;44.47;31.88;;;;;;;;;;6270521;28;24842;-81
2024/02/16 05:25:59;;;;;;;45.95;31.58;;;;;;;;;;6268318;28;24492;-81
2024/02/16 05:29:01;;;;;;;46.92;32.30;;;;;;;;;;6269040;28;24430;-81
2024/02/16 05:32:03;;;;;;;47.08;32.08;;;;;;;;;;6272354;28;24603;-80
2024/02/16 05:35:11;;;;;;;47.47;32.95;;;;;;;;;;6274308;28;24446;-81
2024/02/16 05:38:21;;;;;;;48.65;32.80;;;;;;;;;;6266771;28;24623;-80
2024/02/16 05:41:23;;;;;;;48.08;33.17;;;;;;;;;;6271208;28;24419;-80
2024/02/16 05:44:25;;;;;;;50.77;34.63;;;;;;;;;;6269026;28;24530;-81
2024/02/16 05:47:27;;;;;;;50.97;34.53;;;;;;;;;;6267525;28;24431;-82
2024/02/16 05:50:28;;;;;;;52.13;34.50;;;;;;;;;;6267844;28;24506;-81
2024/02/16 05:53:29;;;;;;;50.78;34.28;;;;;;;;;;6266729;28;24422;-80
2024/02/16 05:56:33;;;;;;;49.17;34.33;;;;;;;;;;6270433;28;24434;-82
2024/02/16 05:59:35;;;;;;;53.50;35.33;;;;;;;;;;6268366;28;24561;-80
2024/02/16 06:02:36;;;;;;;55.85;35.80;;;;;;;;;;6268141;28;24424;-82
2024/02/16 06:05:38;;;;;;;53.72;36.30;;;;;;;;;;6265513;28;24427;-81
2024/02/16 06:08:40;;;;;;;52.30;35.73;;;;;;;;;;6267499;28;24710;-80
2024/02/16 06:11:43;;;;;;;49.42;34.08;;;;;;;;;;6268748;28;24412;-79
2024/02/16 06:14:44;;;;;;;52.07;35.80;;;;;;;;;;6266261;28;24412;-80
2024/02/16 06:17:46;;;;;;;54.50;35.13;;;;;;;;;;6269770;28;24474;-80
2024/02/16 06:20:47;;;;;;;53.03;35.97;;;;;;;;;;6270009;28;24422;-80
2024/02/16 06:23:48;;;;;;;58.38;36.70;;;;;;;;;;6267641;28;24834;-81
2024/02/16 06:26:52;;;;;;;52.35;35.35;;;;;;;;;;6266479;28;24426;-81
2024/02/16 06:29:54;;;;;;;49.22;34.83;;;;;;;;;;6266759;28;24423;-80
2024/02/16 06:32:55;;;;;;;51.08;35.63;;;;;;;;;;6267890;28;24423;-80
2024/02/16 06:35:57;;;;;;;54.25;35.95;;;;;;;;;;6267563;28;24473;-81
2024/02/16 06:38:58;;;;;;;52.15;34.50;;;;;;;;;;6269569;28;25164;-82
2024/02/16 06:42:01;;;;;;;52.13;34.90;;;;;;;;;;6267287;28;24471;-81
2024/02/16 06:45:03;;;;;;;49.80;34.35;;;;;;;;;;6266093;28;24434;-82
2024/02/16 06:48:05;;;;;;;51.15;34.40;;;;;;;;;;6266866;28;24557;-83
2024/02/16 06:51:07;;;;;;;50.55;33.85;;;;;;;;;;6266274;28;24446;-83
2024/02/16 06:54:08;;;;;;;53.60;35.67;;;;;;;;;;6267353;28;24595;-82
2024/02/16 06:57:11;;;;;;;48.70;34.67;;;;;;;;;;6267553;28;24415;-81
2024/02/16 07:00:15;;;;;;;49.03;33.67;;;;;;;;;;6265993;28;25157;-82
2024/02/16 07:03:17;;;;;;;50.50;34.07;;;;;;;;;;6268102;28;24522;-82
2024/02/16 07:06:18;;;;;;;49.55;34.03;;;;;;;;;;6267404;28;24427;-81
2024/02/16 07:09:21;;;;;;;49.67;34.42;;;;;;;;;;6268934;28;24463;-82
2024/02/16 07:12:24;;;;;;;52.47;33.38;;;;;;;;;;6265137;28;24435;-82
2024/02/16 07:15:26;;;;;;;49.05;33.08;;;;;;;;;;6265622;28;24423;-81
2024/02/16 07:18:29;;;;;;;50.05;33.15;;;;;;;;;;6266184;28;24420;-82
2024/02/16 07:21:30;;;;;;;48.20;33.47;;;;;;;;;;6267622;28;24502;-82
2024/02/16 07:24:32;;;;;;;49.30;33.78;;;;;;;;;;6266955;28;24435;-82
2024/02/16 07:27:34;;;;;;;47.97;33.20;;;;;;;;;;6267925;28;24619;-81
2024/02/16 07:30:38;;;;;;;48.80;34.10;;;;;;;;;;6264457;28;24424;-81
2024/02/16 07:33:39;;;;;;;47.58;33.38;;;;;;;;;;6267854;28;24817;-81
2024/02/16 07:36:41;;;;;;;51.58;34.25;;;;;;;;;;6264503;28;24807;-82
2024/02/16 07:39:42;;;;;;;46.55;33.50;;;;;;;;;;6266098;28;24506;-81
2024/02/16 07:42:45;;;;;;;51.00;33.72;;;;;;;;;;6262408;28;24434;-81
2024/02/16 07:45:47;;;;;;;47.13;33.55;;;;;;;;;;6267572;28;24439;-81
2024/02/16 07:48:48;;;;;;;46.00;32.60;;;;;;;;;;6269758;28;24895;-81
2024/02/16 07:51:50;;;;;;;47.78;33.47;;;;;;;;;;6263044;28;24491;-80
2024/02/16 07:54:51;;;;;;;47.20;33.35;;;;;;;;;;6265215;28;24485;-80
2024/02/16 07:57:54;;;;;;;48.67;33.83;;;;;;;;;;6265449;28;24426;-80
2024/02/16 08:00:56;;;;;;;48.90;34.22;;;;;;;;;;6262496;28;24427;-80
2024/02/16 08:03:57;;;;;;;44.60;33.30;;;;;;;;;;6263896;28;24439;-80
2024/02/16 08:07:01;;;;;;;48.20;33.45;;;;;;;;;;6268855;28;24429;-82
2024/02/16 08:10:02;;;;;;;46.08;33.60;;;;;;;;;;6265387;28;24431;-79
2024/02/16 08:13:06;;;;;;;117.30;40.72;;;;;;;;;;6265061;28;24439;-80
2024/02/16 08:16:07;;;;;;;157.70;45.60;;;;;;;;;;6263957;28;24834;-82
2024/02/16 08:19:09;;;;;;;69.38;36.35;;;;;;;;;;6266387;28;24543;-81
2024/02/16 08:22:11;;;;;;;51.47;35.22;;;;;;;;;;6264930;28;24447;-82
2024/02/16 08:25:12;;;;;;;49.45;35.53;;;;;;;;;;6265215;28;24459;-82
2024/02/16 08:28:15;;;;;;;49.53;35.63;;;;;;;;;;6267099;28;24435;-83
2024/02/16 08:31:17;;;;;;;51.88;37.08;;;;;;;;;;6266081;28;25420;-81
2024/02/16 08:34:19;;;;;;;52.90;36.80;;;;;;;;;;6265786;28;24443;-83
2024/02/16 08:37:21;;;;;;;52.47;36.15;;;;;;;;;;6261300;28;24450;-82
2024/02/16 08:40:23;;;;;;;52.40;36.00;;;;;;;;;;6262390;28;24479;-83
2024/02/16 08:43:26;;;;;;;55.75;39.08;;;;;;;;;;6264917;28;24753;-83
2024/02/16 08:46:29;;;;;;;52.20;37.47;;;;;;;;;;6263339;28;24557;-81
2024/02/16 08:49:30;;;;;;;51.97;37.83;;;;;;;;;;6265835;28;24588;-81
2024/02/16 08:52:32;;;;;;;52.45;37.78;;;;;;;;;;6265338;28;25091;-81
2024/02/16 08:55:34;;;;;;;51.35;37.35;;;;;;;;;;6265682;28;24453;-82
2024/02/16 08:58:36;;;;;;;50.17;36.40;;;;;;;;;;6267163;28;24574;-82
2024/02/16 09:01:39;;;;;;;49.35;35.75;;;;;;;;;;6265735;28;24423;-81
2024/02/16 09:04:40;;;;;;;51.42;37.35;;;;;;;;;;6263759;28;24473;-81
2024/02/16 09:07:42;;;;;;;49.20;36.27;;;;;;;;;;6263658;28;24406;-82
2024/02/16 09:10:43;;;;;;;48.60;36.17;;;;;;;;;;6264897;28;24484;-82
2024/02/16 09:13:46;;;;;;;49.67;34.42;;;;;;;;;;6261656;28;24496;-81
2024/02/16 09:16:49;;;;;;;46.22;33.97;;;;;;;;;;6264905;28;24431;-83
2024/02/16 09:19:52;;;;;;;46.37;34.97;;;;;;;;;;6266714;28;24423;-82
2024/02/16 09:22:54;;;;;;;46.63;35.15;;;;;;;;;;6266277;28;24415;-83
2024/02/16 09:25:55;;;;;;;42.17;33.13;;;;;;;;;;6267478;28;24603;-79
2024/02/16 09:28:58;;;;;;;40.15;32.03;;;;;;;;;;6263787;28;24427;-83
2024/02/16 09:32:00;;;;;;;41.78;32.38;;;;;;;;;;6264059;28;24427;-83
2024/02/16 09:35:01;;;;;;;42.55;33.38;;;;;;;;;;6266532;28;24418;-84
2024/02/16 09:38:03;;;;;;;44.42;33.55;;;;;;;;;;6264058;28;24420;-83
2024/02/16 09:41:04;;;;;;;43.07;32.93;;;;;;;;;;6265338;28;24426;-82
2024/02/16 09:44:07;;;;;;;39.90;30.88;;;;;;;;;;6266761;28;24450;-83
2024/02/16 09:47:12;;;;;;;39.07;31.03;;;;;;;;;;6266183;28;24442;-82
2024/02/16 09:50:13;;;;;;;39.58;30.30;;;;;;;;;;6265701;28;24462;-80
2024/02/16 09:53:16;;;;;;;37.20;29.90;;;;;;;;;;6265081;28;24416;-81
2024/02/16 09:56:17;;;;;;;43.42;34.47;;;;;;;;;;6263013;28;24635;-82
2024/02/16 09:59:20;;;;;;;42.60;34.37;;;;;;;;;;6267629;28;24423;-82
2024/02/16 10:02:22;;;;;;;41.70;32.13;;;;;;;;;;6267305;28;24443;-80
2024/02/16 10:05:23;;;;;;;45.05;36.40;;;;;;;;;;6269826;28;26478;-83
2024/02/16 10:08:24;;;;;;;52.65;41.17;;;;;;;;;;6269513;28;24857;-79
2024/02/16 10:11:27;;;;;;;45.95;35.88;;;;;;;;;;6269586;28;24411;-82
2024/02/16 10:14:31;;;;;;;44.40;35.72;;;;;;;;;;6269192;28;24448;-81
2024/02/16 10:17:33;;;;;;;48.50;38.38;;;;;;;;;;6270992;28;24495;-81
2024/02/16 10:20:36;;;;;;;48.65;37.47;;;;;;;;;;6269692;28;24440;-80
2024/02/16 10:23:37;;;;;;;45.25;35.45;;;;;;;;;;6265629;28;24416;-82
2024/02/16 10:26:39;;;;;;;45.35;36.63;;;;;;;;;;6266067;28;24466;-83
2024/02/16 10:29:44;;;;;;;45.22;36.10;;;;;;;;;;6267663;28;24412;-82
2024/02/16 10:32:45;;;;;;;47.95;39.33;;;;;;;;;;6270257;28;24474;-82
2024/02/16 10:35:48;;;;;;;45.65;37.38;;;;;;;;;;6269163;28;24412;-82
2024/02/16 10:38:49;;;;;;;50.10;37.97;;;;;;;;;;6269995;28;24502;-83
2024/02/16 10:41:52;;;;;;;48.85;38.90;;;;;;;;;;6268004;28;24438;-82
2024/02/16 10:44:55;;;;;;;55.58;42.88;;;;;;;;;;6269079;28;24425;-82
2024/02/16 10:47:56;;;;;;;48.22;39.75;;;;;;;;;;6267799;28;24479;-83
2024/02/16 10:50:58;;;;;;;53.38;41.20;;;;;;;;;;6269820;28;24835;-82
2024/02/16 10:54:01;;;;;;;48.00;37.40;;;;;;;;;;6269757;28;24624;-81
2024/02/16 10:57:02;;;;;;;48.55;36.83;;;;;;;;;;6267585;28;24423;-83
2024/02/16 11:00:10;;;;;;;47.90;38.80;;;;;;;;;;6264542;28;24433;-80
2024/02/16 11:03:17;;;;;;;52.30;40.40;;;;;;;;;;6262285;28;24619;-82
2024/02/16 11:06:18;;;;;;;59.33;44.83;;;;;;;;;;6268368;28;24844;-80
2024/02/16 11:09:29;;;;;;;60.22;45.95;;;;;;;;;;6268424;28;24424;-82
2024/02/16 11:12:35;;;;;;;60.70;47.30;;;;;;;;;;6267724;28;24426;-80
2024/02/16 11:15:38;;;;;;;58.28;44.78;;;;;;;;;;6268409;28;24416;-80
2024/02/16 11:18:40;;;;;;;54.63;43.30;;;;;;;;;;6266275;28;24423;-81
2024/02/16 11:21:56;;;;;;;62.63;48.85;;;;;;;;;;6266692;28;24855;-83
2024/02/16 11:25:00;;;;;;;56.80;45.85;;;;;;;;;;6268602;28;24435;-82
2024/02/16 11:28:03;;;;;;;61.90;48.97;;;;;;;;;;6268066;28;24419;-82
2024/02/16 11:31:07;;;;;;;60.15;46.50;;;;;;;;;;6265467;28;24427;-83
2024/02/16 11:34:08;;;;;;;237.45;137.90;;;;;;;;;;6270276;28;24431;-83
2024/02/16 11:37:14;;;;;;;143.68;94.97;;;;;;;;;;6272759;28;24427;-83
2024/02/16 11:40:15;;;;;;;76.50;54.95;;;;;;;;;;6266897;28;24438;-83
2024/02/16 11:43:20;;;;;;;58.65;46.22;;;;;;;;;;6267940;28;24421;-82
2024/02/16 11:46:24;;;;;;;56.20;43.87;;;;;;;;;;6269126;28;24669;-82
2024/02/16 11:49:26;;;;;;;56.88;45.97;;;;;;;;;;6268574;28;24479;-83
2024/02/16 11:52:28;;;;;;;55.30;45.03;;;;;;;;;;6264933;28;24559;-82
2024/02/16 11:55:29;;;;;;;55.53;42.87;;;;;;;;;;6267701;28;24699;-82
2024/02/16 11:58:31;;;;;;;49.40;40.65;;;;;;;;;;6267004;28;25327;-81
2024/02/16 12:01:34;;;;;;;58.40;46.13;;;;;;;;;;6267551;28;24414;-83
2024/02/16 12:04:35;;;;;;;51.00;42.50;;;;;;;;;;6265938;28;24411;-83
2024/02/16 12:07:39;;;;;;;49.88;39.33;;;;;;;;;;6264383;28;24415;-82
2024/02/16 12:10:40;;;;;;;48.03;38.78;;;;;;;;;;6265944;28;24414;-82
2024/02/16 12:13:42;;;;;;;55.72;45.03;;;;;;;;;;6269309;28;24481;-82
2024/02/16 12:16:47;;;;;;;51.43;41.20;;;;;;;;;;6265093;28;24885;-82
2024/02/16 12:19:51;;;;;;;51.67;42.28;;;;;;;;;;6265720;28;24422;-81
2024/02/16 12:22:53;;;;;;;46.67;37.85;;;;;;;;;;6264200;28;24426;-82
2024/02/16 12:25:54;;;;;;;52.42;43.38;;;;;;;;;;6269252;28;24419;-81
2024/02/16 12:28:56;;;;;;;56.60;46.15;;;;;;;;;;6265097;28;24507;-81
2024/02/16 12:31:59;;;;;;;53.15;43.50;;;;;;;;;;6266467;28;24430;-82
2024/02/16 12:35:00;;;;;;;44.60;37.58;;;;;;;;;;6268797;28;24841;-84
2024/02/16 12:38:02;;;;;;;48.22;39.75;;;;;;;;;;6263701;28;24491;-83
2024/02/16 12:41:03;;;;;;;50.92;42.80;;;;;;;;;;6261316;28;24418;-82
2024/02/16 12:44:05;;;;;;;51.33;43.13;;;;;;;;;;6265231;28;24423;-81
2024/02/16 12:47:08;;;;;;;54.50;46.53;;;;;;;;;;6262705;28;24454;-83
2024/02/16 12:50:09;;;;;;;58.95;48.65;;;;;;;;;;6266134;28;24474;-82
2024/02/16 12:53:11;;;;;;;61.58;48.85;;;;;;;;;;6266186;28;24427;-82
2024/02/16 12:56:13;;;;;;;54.40;45.25;;;;;;;;;;6263837;28;24418;-83
2024/02/16 12:59:14;;;;;;;57.33;45.53;;;;;;;;;;6266838;28;24418;-83
2024/02/16 13:02:17;;;;;;;55.97;45.33;;;;;;;;;;6266526;28;24501;-83
2024/02/16 13:05:19;;;;;;;54.33;44.50;;;;;;;;;;6265100;28;24655;-82
2024/02/16 13:08:20;;;;;;;59.10;48.33;;;;;;;;;;6265938;28;24509;-82
2024/02/16 13:11:22;;;;;;;61.42;48.47;;;;;;;;;;6262749;28;24438;-82
2024/02/16 13:14:23;;;;;;;60.92;49.33;;;;;;;;;;6267666;28;24433;-83
2024/02/16 13:17:26;;;;;;;58.23;45.77;;;;;;;;;;6265397;28;24813;-81
2024/02/16 13:20:28;;;;;;;56.10;44.97;;;;;;;;;;6264757;28;24427;-83
2024/02/16 13:23:30;;;;;;;50.63;42.40;;;;;;;;;;6265876;28;24416;-81
2024/02/16 13:26:32;;;;;;;53.53;44.27;;;;;;;;;;6264871;28;24492;-82
2024/02/16 13:29:33;;;;;;;52.95;42.60;;;;;;;;;;6265526;28;24825;-82
2024/02/16 13:32:39;;;;;;;51.45;43.50;;;;;;;;;;6262155;28;24635;-83
2024/02/16 13:35:41;;;;;;;47.85;39.50;;;;;;;;;;6270226;28;24535;-81
2024/02/16 13:38:42;;;;;;;47.07;37.80;;;;;;;;;;6268460;28;24498;-83
2024/02/16 13:41:46;;;;;;;51.28;42.42;;;;;;;;;;6268510;28;24894;-82
2024/02/16 13:44:47;;;;;;;58.53;46.45;;;;;;;;;;6267331;28;24427;-81
2024/02/16 13:47:50;;;;;;;57.08;45.88;;;;;;;;;;6269035;28;24608;-82
2024/02/16 13:50:52;;;;;;;51.10;40.28;;;;;;;;;;6270171;28;24419;-83
2024/02/16 13:53:53;;;;;;;63.83;50.15;;;;;;;;;;6269302;28;24423;-83
2024/02/16 13:56:55;;;;;;;67.18;50.05;;;;;;;;;;6267008;28;24427;-83
2024/02/16 13:59:56;;;;;;;62.30;48.50;;;;;;;;;;6269966;28;24420;-84
2024/02/16 14:02:59;;;;;;;63.08;47.08;;;;;;;;;;6271924;28;24423;-84
2024/02/16 14:06:01;;;;;;;63.88;49.58;;;;;;;;;;6269397;28;24446;-82
2024/02/16 14:09:08;;;;;;;67.60;50.37;;;;;;;;;;6266710;28;24461;-82
2024/02/16 14:12:11;;;;;;;67.95;51.65;;;;;;;;;;6268841;28;24474;-81
2024/02/16 14:15:15;;;;;;;61.38;46.95;;;;;;;;;;6268110;28;24867;-83
2024/02/16 14:18:18;;;;;;;61.67;47.15;;;;;;;;;;6270500;28;24786;-83
2024/02/16 14:21:19;;;;;;;62.20;47.65;;;;;;;;;;6268599;28;24672;-83
2024/02/16 14:24:21;;;;;;;68.80;50.42;;;;;;;;;;6266655;28;24427;-82
2024/02/16 14:27:23;;;;;;;63.30;48.20;;;;;;;;;;6267588;28;24493;-85
2024/02/16 14:30:24;;;;;;;64.07;48.75;;;;;;;;;;6270475;28;24419;-83
2024/02/16 14:33:27;;;;;;;63.75;48.22;;;;;;;;;;6268199;28;24438;-84
2024/02/16 14:36:29;;;;;;;67.07;49.08;;;;;;;;;;6266812;28;24473;-83
2024/02/16 14:39:30;;;;;;;61.72;46.67;;;;;;;;;;6268679;28;24520;-83
2024/02/16 14:42:34;;;;;;;57.10;43.90;;;;;;;;;;6270288;28;24435;-82
2024/02/16 14:45:39;;;;;;;61.83;45.65;;;;;;;;;;6266399;28;24412;-84
2024/02/16 14:48:42;;;;;;;58.88;45.92;;;;;;;;;;6268684;28;24423;-81
2024/02/16 14:51:44;;;;;;;62.47;47.22;;;;;;;;;;6268221;28;24434;-83
2024/02/16 14:54:46;;;;;;;61.70;46.60;;;;;;;;;;6267773;28;24498;-86
2024/02/16 14:57:47;;;;;;;60.70;45.53;;;;;;;;;;6267106;28;24535;-83
2024/02/16 15:00:49;;;;;;;59.78;45.83;;;;;;;;;;6267108;28;24481;-84
2024/02/16 15:03:55;;;;;;;51.45;39.53;;;;;;;;;;6271275;28;24516;-80
2024/02/16 15:06:56;;;;;;;55.55;43.00;;;;;;;;;;6267843;28;24450;-82
2024/02/16 15:09:58;;;;;;;57.67;45.05;;;;;;;;;;6263718;28;24889;-83
2024/02/16 15:12:59;;;;;;;54.85;42.65;;;;;;;;;;6268351;28;24627;-83
2024/02/16 15:16:04;;;;;;;59.65;45.05;;;;;;;;;;6268085;28;24423;-83
2024/02/16 15:19:12;;;;;;;63.17;47.47;;;;;;;;;;6267765;28;24814;-83
2024/02/16 15:22:14;;;;;;;56.13;43.23;;;;;;;;;;6266524;28;24463;-82
2024/02/16 15:25:15;;;;;;;63.53;46.88;;;;;;;;;;6266571;28;24432;-82
2024/02/16 15:28:17;;;;;;;63.92;49.38;;;;;;;;;;6265968;28;24443;-81
2024/02/16 15:31:18;;;;;;;66.72;48.88;;;;;;;;;;6268692;28;24791;-84
2024/02/16 15:34:21;;;;;;;63.20;47.85;;;;;;;;;;6266625;28;24447;-81
2024/02/16 15:37:23;;;;;;;62.38;47.63;;;;;;;;;;6264490;28;24448;-81
2024/02/16 15:40:25;;;;;;;64.35;49.42;;;;;;;;;;6267724;28;24435;-83
2024/02/16 15:43:27;;;;;;;66.50;49.38;;;;;;;;;;6265355;28;24856;-86
2024/02/16 15:46:29;;;;;;;64.80;48.30;;;;;;;;;;6263020;28;24435;-83
2024/02/16 15:49:32;;;;;;;63.78;48.83;;;;;;;;;;6267874;28;24419;-84
2024/02/16 15:52:33;;;;;;;71.68;52.45;;;;;;;;;;6261280;28;24414;-84
2024/02/16 15:55:35;;;;;;;69.40;51.63;;;;;;;;;;6253102;28;24403;-83
2024/02/16 15:58:36;;;;;;;69.95;51.08;;;;;;;;;;6265458;28;24525;-82
2024/02/16 16:01:38;;;;;;;69.37;50.17;;;;;;;;;;6268539;28;24497;-83
2024/02/16 16:04:41;;;;;;;67.55;48.63;;;;;;;;;;6263167;28;24418;-83
2024/02/16 16:07:42;;;;;;;65.50;48.83;;;;;;;;;;6263762;28;24411;-84
2024/02/16 16:10:44;;;;;;;65.53;48.80;;;;;;;;;;6266917;28;24411;-81
2024/02/16 16:13:45;;;;;;;64.65;47.13;;;;;;;;;;6263613;28;24422;-84
2024/02/16 16:16:52;;;;;;;64.40;47.70;;;;;;;;;;6263455;28;24419;-82
2024/02/16 16:19:55;;;;;;;65.93;48.50;;;;;;;;;;6266467;28;24424;-81
2024/02/16 16:22:56;;;;;;;64.68;46.65;;;;;;;;;;6264294;28;24431;-81
2024/02/16 16:25:58;;;;;;;64.93;47.55;;;;;;;;;;6259694;28;24484;-82
2024/02/16 16:29:00;;;;;;;62.85;46.90;;;;;;;;;;6265977;28;24424;-82
2024/02/16 16:32:04;;;;;;;67.18;48.65;;;;;;;;;;6265988;28;24424;-80
2024/02/16 16:35:09;;;;;;;68.13;49.67;;;;;;;;;;6265280;28;24419;-81
2024/02/16 16:38:10;;;;;;;67.75;48.15;;;;;;;;;;6264293;28;24498;-83
2024/02/16 16:41:11;;;;;;;62.25;47.17;;;;;;;;;;6265809;28;24416;-83
2024/02/16 16:44:13;;;;;;;67.73;49.23;;;;;;;;;;6265573;28;24830;-85
2024/02/16 16:47:15;;;;;;;64.10;47.35;;;;;;;;;;6265398;28;24454;-83
2024/02/16 16:50:19;;;;;;;67.22;48.25;;;;;;;;;;6263542;28;24435;-81
2024/02/16 16:53:21;;;;;;;66.25;47.83;;;;;;;;;;6265796;28;24623;-83
2024/02/16 16:56:22;;;;;;;71.20;50.47;;;;;;;;;;6264209;28;24420;-80
2024/02/16 16:59:24;;;;;;;69.82;48.88;;;;;;;;;;6263289;28;24431;-82
2024/02/16 17:02:25;;;;;;;69.85;48.80;;;;;;;;;;6263712;28;24829;-83
2024/02/16 17:05:28;;;;;;;69.57;48.55;;;;;;;;;;6265087;28;24566;-83
2024/02/16 17:08:30;;;;;;;66.55;48.75;;;;;;;;;;6265749;28;24428;-82
2024/02/16 17:11:32;;;;;;;64.57;46.10;;;;;;;;;;6269091;28;24433;-83
2024/02/16 17:14:34;;;;;;;65.30;46.03;;;;;;;;;;6269154;28;24423;-82
2024/02/16 17:17:35;;;;;;;67.13;48.57;;;;;;;;;;6267279;28;24420;-83
2024/02/16 17:20:39;;;;;;;70.38;48.65;;;;;;;;;;6267869;28;24420;-82
2024/02/16 17:23:41;;;;;;;66.53;48.38;;;;;;;;;;6266855;28;24412;-83
2024/02/16 17:26:42;;;;;;;69.40;48.83;;;;;;;;;;6268152;28;24436;-82
2024/02/16 17:29:45;;;;;;;70.53;48.35;;;;;;;;;;6268323;28;24420;-82
2024/02/16 17:32:48;;;;;;;72.28;50.33;;;;;;;;;;6270524;28;25152;-85
2024/02/16 17:35:51;;;;;;;70.77;49.13;;;;;;;;;;6268754;28;25229;-83
2024/02/16 17:38:52;;;;;;;71.90;50.80;;;;;;;;;;6269081;28;24439;-82